Time;durP1;ratioP1;P1;durP2;ratioP2;P2;SDS_P1;SDS_P2;PMS_P1;PMS_P2;Temp;Humidity;BMP_temperature;BMP_pressure;BME280_temperature;BME280_humidity;BME280_pressure;Samples;Min_cycle;Max_cycle;Signal;HPM_P1;HPM_P2
2022/07/21 00:01:30;;;;;;;40.17;36.92;;;19.60;99.90;;;;;;5018938;28;20722;-81
2022/07/21 00:03:56;;;;;;;29.35;26.70;;;19.70;99.90;;;;;;5034705;28;20189;-81
2022/07/21 00:06:22;;;;;;;32.83;29.73;;;19.50;99.90;;;;;;5017565;28;20693;-80
2022/07/21 00:08:47;;;;;;;32.85;29.95;;;19.40;99.90;;;;;;5017114;28;20267;-81
2022/07/21 00:11:13;;;;;;;34.17;31.45;;;19.40;99.90;;;;;;5017986;28;20180;-82
2022/07/21 00:13:39;;;;;;;52.83;48.97;;;19.40;99.90;;;;;;5017869;28;20231;-79
2022/07/21 00:16:05;;;;;;;73.80;68.32;;;19.40;99.90;;;;;;5017760;28;20218;-80
2022/07/21 00:18:31;;;;;;;117.40;110.00;;;19.50;99.90;;;;;;5017976;28;20547;-81
2022/07/21 00:20:58;;;;;;;122.30;114.20;;;19.50;99.90;;;;;;5019485;28;20184;-79
2022/07/21 00:23:24;;;;;;;90.25;83.90;;;19.40;99.90;;;;;;5018977;28;20183;-80
2022/07/21 00:25:51;;;;;;;65.87;60.93;;;19.40;99.90;;;;;;5018883;28;20587;-80
2022/07/21 00:28:17;;;;;;;57.90;53.07;;;19.40;99.90;;;;;;5017083;28;20230;-81
2022/07/21 00:30:43;;;;;;;68.00;63.20;;;19.40;99.90;;;;;;5020748;28;20261;-80
2022/07/21 00:33:09;;;;;;;57.45;53.35;;;19.30;99.90;;;;;;5026805;28;20210;-81
2022/07/21 00:35:35;;;;;;;54.33;50.33;;;19.20;99.90;;;;;;5033606;28;20246;-79
2022/07/21 00:38:01;;;;;;;56.93;52.63;;;19.30;99.90;;;;;;5029934;28;20273;-81
2022/07/21 00:40:28;;;;;;;54.70;50.43;;;19.30;99.90;;;;;;5050427;28;20414;-79
2022/07/21 00:42:54;;;;;;;53.30;49.20;;;19.30;99.90;;;;;;5036277;28;20183;-80
2022/07/21 00:45:20;;;;;;;52.37;48.37;;;19.40;99.90;;;;;;5035366;28;20226;-80
2022/07/21 00:47:46;;;;;;;50.27;46.37;;;19.30;99.90;;;;;;5035994;28;20183;-79
2022/07/21 00:50:18;;;;;;;60.93;56.50;;;19.40;99.90;;;;;;5025082;28;20179;-80
2022/07/21 00:52:45;;;;;;;121.77;114.27;;;19.40;99.90;;;;;;5022211;28;20262;-81
2022/07/21 00:55:14;;;;;;;115.37;108.10;;;19.40;99.90;;;;;;5022396;28;20179;-80
2022/07/21 00:57:41;;;;;;;124.37;117.00;;;19.40;99.90;;;;;;5021865;28;20274;-80
2022/07/21 01:00:11;;;;;;;148.02;139.27;;;19.40;99.90;;;;;;5024570;28;20707;-81
2022/07/21 01:02:37;;;;;;;45.10;41.60;;;19.40;99.90;;;;;;5023189;28;20180;-80
2022/07/21 01:05:12;;;;;;;51.07;47.27;;;19.30;99.90;;;;;;5021418;28;20592;-80
2022/07/21 01:07:43;;;;;;;61.03;56.50;;;19.20;99.90;;;;;;5026921;28;20218;-78
2022/07/21 01:10:11;;;;;;;117.70;110.60;;;19.20;99.90;;;;;;5027942;28;20191;-81
2022/07/21 01:12:37;;;;;;;95.75;89.30;;;19.30;99.90;;;;;;5020886;28;20203;-81
2022/07/21 01:15:06;;;;;;;112.07;105.10;;;19.40;99.90;;;;;;5022946;28;20207;-81
2022/07/21 01:17:32;;;;;;;43.17;39.63;;;19.40;99.90;;;;;;5018454;28;20645;-81
2022/07/21 01:19:58;;;;;;;52.05;47.67;;;19.30;99.90;;;;;;5020639;28;20247;-81
2022/07/21 01:22:24;;;;;;;74.93;69.83;;;19.30;99.90;;;;;;5027692;28;20176;-81
2022/07/21 01:24:50;;;;;;;64.27;59.77;;;19.20;99.90;;;;;;5028553;28;20447;-81
2022/07/21 01:27:16;;;;;;;61.92;57.65;;;19.20;99.90;;;;;;5019332;28;20199;-81
2022/07/21 01:29:42;;;;;;;71.73;67.00;;;19.20;99.90;;;;;;5017979;28;20699;-81
2022/07/21 01:32:08;;;;;;;62.40;57.90;;;19.20;99.90;;;;;;5019694;28;20214;-81
2022/07/21 01:34:33;;;;;;;65.37;60.87;;;19.20;99.90;;;;;;5019425;28;20218;-82
2022/07/21 01:36:59;;;;;;;68.60;63.97;;;19.20;99.90;;;;;;5017870;28;20192;-80
2022/07/21 01:42:09;;;;;;;61.70;57.30;;;19.30;99.90;;;;;;5018612;28;20666;-79
2022/07/21 01:44:35;;;;;;;58.80;54.53;;;19.30;99.90;;;;;;5017635;28;20262;-79
2022/07/21 01:47:01;;;;;;;55.53;50.95;;;19.30;99.90;;;;;;5016859;28;20695;-81
2022/07/21 01:49:26;;;;;;;64.60;60.10;;;19.30;99.90;;;;;;5015233;28;20186;-81
2022/07/21 01:51:52;;;;;;;92.73;86.40;;;19.30;99.90;;;;;;5014772;28;20243;-81
2022/07/21 01:54:18;;;;;;;45.70;42.17;;;19.40;99.90;;;;;;5050165;28;20207;-78
2022/07/21 01:56:44;;;;;;;53.45;49.30;;;19.40;99.90;;;;;;5024563;28;20204;-81
2022/07/21 01:59:09;;;;;;;71.82;66.72;;;19.30;99.90;;;;;;5027236;28;20168;-79
2022/07/21 02:01:35;;;;;;;75.68;70.43;;;19.40;99.90;;;;;;5034817;28;20179;-78
2022/07/21 02:04:03;;;;;;;62.40;57.80;;;19.40;99.90;;;;;;5023861;28;20648;-81
2022/07/21 02:06:29;;;;;;;77.67;71.87;;;19.30;99.90;;;;;;4999396;28;20640;-81
2022/07/21 02:08:55;;;;;;;64.97;60.00;;;19.40;99.90;;;;;;4997800;28;20191;-81
2022/07/21 02:11:21;;;;;;;53.25;49.05;;;19.40;99.90;;;;;;5015163;28;20649;-81
2022/07/21 02:13:48;;;;;;;96.17;89.77;;;19.50;99.90;;;;;;4997525;28;20699;-81
2022/07/21 02:16:14;;;;;;;130.47;122.23;;;19.50;99.90;;;;;;4997297;28;20208;-81
2022/07/21 02:18:40;;;;;;;40.30;36.70;;;19.50;99.90;;;;;;5004527;28;20216;-80
2022/07/21 02:21:07;;;;;;;64.25;59.60;;;19.50;99.90;;;;;;5021020;28;20180;-81
2022/07/21 02:23:33;;;;;;;81.53;75.90;;;19.50;99.90;;;;;;5017865;28;20183;-81
2022/07/21 02:26:00;;;;;;;180.57;169.82;;;19.60;99.90;;;;;;5018184;28;20210;-80
2022/07/21 02:28:26;;;;;;;104.47;98.10;;;19.60;99.90;;;;;;5018655;28;20184;-81
2022/07/21 02:30:53;;;;;;;63.17;58.63;;;19.60;99.90;;;;;;5008059;28;20188;-75
2022/07/21 02:33:19;;;;;;;42.97;39.47;;;19.60;99.90;;;;;;5017887;28;20213;-75
2022/07/21 02:35:45;;;;;;;39.78;36.22;;;19.60;99.90;;;;;;5029811;28;20285;-76
2022/07/21 02:38:11;;;;;;;58.70;54.53;;;19.50;99.90;;;;;;5030087;28;20179;-75
2022/07/21 02:40:37;;;;;;;60.10;55.83;;;19.50;99.90;;;;;;5031121;28;20183;-75
2022/07/21 02:43:05;;;;;;;70.55;65.95;;;19.50;99.90;;;;;;5029970;28;20207;-75
2022/07/21 02:45:31;;;;;;;66.63;61.75;;;19.50;99.90;;;;;;5031665;28;20214;-74
2022/07/21 02:48:00;;;;;;;57.90;53.72;;;19.50;99.90;;;;;;5028307;28;20532;-75
2022/07/21 02:50:29;;;;;;;49.60;45.87;;;19.50;99.90;;;;;;5026260;28;20664;-75
2022/07/21 02:52:57;;;;;;;37.25;34.08;;;19.50;99.90;;;;;;5010795;28;20306;-76
2022/07/21 02:55:24;;;;;;;48.80;45.22;;;19.50;99.90;;;;;;5010023;28;20211;-74
2022/07/21 02:58:02;;;;;;;35.83;32.83;;;19.50;99.90;;;;;;5009996;28;20259;-74
2022/07/21 03:00:27;;;;;;;50.20;46.47;;;19.50;99.90;;;;;;5010124;28;20183;-75
2022/07/21 03:02:53;;;;;;;63.50;59.03;;;19.50;99.90;;;;;;5009547;28;20190;-75
2022/07/21 03:05:19;;;;;;;67.30;62.63;;;19.50;99.90;;;;;;5009482;28;20350;-74
2022/07/21 03:07:45;;;;;;;82.30;76.43;;;19.50;99.90;;;;;;5009740;28;20233;-75
2022/07/21 03:10:10;;;;;;;84.23;78.40;;;19.50;99.90;;;;;;5009697;28;20209;-75
2022/07/21 03:12:36;;;;;;;88.70;82.63;;;19.50;99.90;;;;;;5010716;28;20629;-75
2022/07/21 03:15:03;;;;;;;99.70;93.10;;;19.50;99.90;;;;;;5010312;28;20281;-74
2022/07/21 03:17:29;;;;;;;93.07;86.93;;;19.50;99.90;;;;;;5009809;28;20200;-74
2022/07/21 03:19:54;;;;;;;89.80;83.83;;;19.50;99.90;;;;;;5011929;28;20209;-74
2022/07/21 03:22:20;;;;;;;94.82;88.72;;;19.50;99.90;;;;;;5012874;28;20179;-74
2022/07/21 03:24:46;;;;;;;95.93;89.50;;;19.50;99.90;;;;;;5014431;28;20187;-74
2022/07/21 03:27:12;;;;;;;94.97;88.70;;;19.50;99.90;;;;;;5012030;28;20595;-75
2022/07/21 03:29:38;;;;;;;102.87;96.17;;;19.50;99.90;;;;;;5014711;28;20676;-74
2022/07/21 03:32:04;;;;;;;91.33;85.17;;;19.50;99.90;;;;;;5029214;28;20180;-75
2022/07/21 03:34:30;;;;;;;86.77;81.03;;;19.50;99.90;;;;;;5013649;28;20188;-74
2022/07/21 03:36:55;;;;;;;74.93;69.23;;;19.50;99.90;;;;;;5013316;28;20210;-74
2022/07/21 03:39:21;;;;;;;71.47;66.27;;;19.60;99.90;;;;;;5014067;28;20192;-75
2022/07/21 03:41:47;;;;;;;61.53;56.90;;;19.60;99.90;;;;;;5013225;28;20171;-74
2022/07/21 03:44:13;;;;;;;57.37;53.07;;;19.60;99.90;;;;;;5029444;28;20237;-74
2022/07/21 03:46:38;;;;;;;58.40;53.30;;;19.70;99.90;;;;;;5044966;22;20246;-73
2022/07/21 03:49:04;;;;;;;62.05;57.25;;;19.70;99.90;;;;;;5031449;28;20221;-74
2022/07/21 03:51:30;;;;;;;61.03;56.15;;;19.70;99.90;;;;;;5032582;28;20190;-74
2022/07/21 03:53:56;;;;;;;100.50;93.50;;;19.70;99.90;;;;;;5032673;28;20695;-74
2022/07/21 03:56:21;;;;;;;113.10;105.85;;;19.70;99.90;;;;;;5029240;28;20209;-72
2022/07/21 03:58:47;;;;;;;120.50;113.03;;;19.70;99.90;;;;;;5051677;28;20181;-72
2022/07/21 04:01:13;;;;;;;134.97;126.57;;;19.70;99.90;;;;;;5053475;28;20174;-73
2022/07/21 04:03:39;;;;;;;141.60;132.63;;;19.60;99.90;;;;;;5053655;28;20832;-73
2022/07/21 04:06:05;;;;;;;145.50;136.67;;;19.50;99.90;;;;;;5053880;28;20581;-73
2022/07/21 04:08:31;;;;;;;141.25;132.77;;;19.50;99.90;;;;;;5052700;28;20583;-73
2022/07/21 04:10:58;;;;;;;166.73;156.93;;;19.50;99.90;;;;;;5053435;28;20186;-74
2022/07/21 04:13:24;;;;;;;125.82;117.30;;;19.50;99.90;;;;;;5052047;28;20209;-73
2022/07/21 04:15:50;;;;;;;108.83;100.70;;;19.50;99.90;;;;;;5052676;28;20679;-74
2022/07/21 04:18:16;;;;;;;83.57;77.45;;;19.50;99.90;;;;;;5037924;28;20213;-75
2022/07/21 04:20:41;;;;;;;72.23;66.93;;;19.60;99.90;;;;;;5032898;28;20181;-74
2022/07/21 04:23:07;;;;;;;83.87;78.20;;;19.60;99.90;;;;;;5031663;28;20187;-77
2022/07/21 04:25:33;;;;;;;89.07;83.10;;;19.60;99.90;;;;;;5031994;28;20206;-74
2022/07/21 04:27:59;;;;;;;125.87;117.63;;;19.70;99.90;;;;;;5032142;28;20237;-75
2022/07/21 04:30:25;;;;;;;148.65;138.48;;;19.70;99.90;;;;;;5031142;28;20219;-76
2022/07/21 04:32:51;;;;;;;208.93;196.20;;;19.70;99.90;;;;;;5029294;28;20627;-76
2022/07/21 04:35:17;;;;;;;116.30;109.17;;;19.70;99.90;;;;;;5027659;28;20175;-75
2022/07/21 04:37:44;;;;;;;58.80;54.47;;;19.80;99.90;;;;;;5031392;28;20203;-74
2022/07/21 04:40:11;;;;;;;42.90;39.60;;;19.80;99.90;;;;;;5032885;28;20179;-76
2022/07/21 04:42:38;;;;;;;57.65;53.63;;;19.80;99.90;;;;;;5033093;28;20206;-76
2022/07/21 04:45:05;;;;;;;185.70;175.40;;;19.80;99.90;;;;;;5032692;28;20209;-76
2022/07/21 04:47:31;;;;;;;61.45;57.00;;;19.70;99.90;;;;;;5031383;28;20246;-78
2022/07/21 04:49:57;;;;;;;36.17;33.47;;;19.70;99.90;;;;;;5031665;28;20210;-77
2022/07/21 04:52:23;;;;;;;35.88;33.17;;;19.70;99.90;;;;;;5043110;28;20218;-76
2022/07/21 04:54:50;;;;;;;50.30;46.57;;;19.70;99.90;;;;;;5041003;28;20179;-76
2022/07/21 04:57:16;;;;;;;55.23;51.20;;;19.70;99.90;;;;;;5031670;28;20210;-77
2022/07/21 04:59:41;;;;;;;48.90;45.30;;;19.80;99.90;;;;;;5030759;28;20179;-77
2022/07/21 05:02:07;;;;;;;47.90;44.22;;;19.90;99.90;;;;;;5031875;28;20175;-76
2022/07/21 05:04:33;;;;;;;170.60;161.27;;;20.00;99.90;;;;;;5032180;28;20182;-77
2022/07/21 05:06:59;;;;;;;274.05;259.27;;;20.10;99.90;;;;;;5031629;28;20630;-76
2022/07/21 05:09:24;;;;;;;97.53;91.40;;;20.10;99.90;;;;;;5031251;28;21114;-76
2022/07/21 05:11:50;;;;;;;59.55;55.15;;;20.20;99.90;;;;;;5032589;28;20189;-75
2022/07/21 05:14:16;;;;;;;104.18;97.57;;;20.20;99.90;;;;;;5032010;28;20231;-76
2022/07/21 05:16:43;;;;;;;127.25;119.25;;;20.20;99.90;;;;;;5029303;28;20874;-75
2022/07/21 05:19:09;;;;;;;53.20;49.57;;;20.30;99.90;;;;;;5030176;28;20175;-75
2022/07/21 05:21:35;;;;;;;36.40;33.75;;;20.30;99.90;;;;;;5032096;28;20186;-75
2022/07/21 05:24:00;;;;;;;39.40;36.03;;;20.30;99.90;;;;;;5030090;28;20225;-76
2022/07/21 05:26:26;;;;;;;44.35;40.90;;;20.20;99.90;;;;;;5032554;28;20213;-76
2022/07/21 05:28:52;;;;;;;45.53;42.22;;;20.30;99.90;;;;;;5031084;28;20268;-76
2022/07/21 05:31:18;;;;;;;48.28;44.35;;;20.30;99.90;;;;;;5031412;28;20179;-75
2022/07/21 05:33:43;;;;;;;49.72;45.88;;;20.30;99.90;;;;;;5032030;28;20328;-77
2022/07/21 05:36:09;;;;;;;33.35;30.60;;;20.20;99.90;;;;;;5035582;28;20195;-77
2022/07/21 05:38:35;;;;;;;39.08;35.75;;;20.30;99.90;;;;;;5032103;28;20557;-75
2022/07/21 05:41:02;;;;;;;29.33;26.80;;;20.30;99.90;;;;;;5032056;28;20179;-77
2022/07/21 05:43:30;;;;;;;92.90;87.07;;;20.40;99.90;;;;;;5032168;28;20270;-77
2022/07/21 05:45:56;;;;;;;124.95;117.68;;;20.50;99.90;;;;;;5032435;28;20210;-77
2022/07/21 05:48:22;;;;;;;91.07;85.43;;;20.60;99.90;;;;;;5043778;28;20194;-76
2022/07/21 05:50:48;;;;;;;52.55;48.95;;;20.80;99.90;;;;;;5044711;28;20671;-78
2022/07/21 05:53:13;;;;;;;99.15;93.28;;;21.30;99.90;;;;;;5034835;28;20211;-79
2022/07/21 05:55:39;;;;;;;120.28;113.22;;;22.00;99.90;;;;;;5040313;28;20231;-77
2022/07/21 05:58:05;;;;;;;51.25;47.72;;;22.50;99.90;;;;;;5019352;28;20725;-77
2022/07/21 06:00:31;;;;;;;44.97;42.10;;;22.80;99.90;;;;;;5011698;28;20179;-77
2022/07/21 06:02:57;;;;;;;30.67;28.27;;;22.80;99.90;;;;;;5011933;28;20547;-78
2022/07/21 06:05:22;;;;;;;20.83;18.80;;;22.70;99.90;;;;;;5012339;28;20191;-77
2022/07/21 06:07:48;;;;;;;20.73;18.75;;;22.60;99.90;;;;;;5010880;28;20563;-78
2022/07/21 06:10:14;;;;;;;22.92;20.65;;;22.50;99.90;;;;;;5011621;28;20180;-77
2022/07/21 06:12:40;;;;;;;24.88;22.88;;;22.40;99.90;;;;;;5011814;28;20600;-79
2022/07/21 06:15:07;;;;;;;24.75;22.25;;;22.30;99.90;;;;;;5011950;28;20179;-78
2022/07/21 06:17:44;;;;;;;23.65;21.90;;;22.20;99.90;;;;;;5010930;28;20227;-78
2022/07/21 06:20:11;;;;;;;26.05;23.67;;;22.20;99.90;;;;;;5011990;28;20430;-78
2022/07/21 06:22:37;;;;;;;20.52;18.50;;;22.20;99.90;;;;;;5013118;28;20656;-78
2022/07/21 06:25:04;;;;;;;25.08;22.90;;;22.20;99.90;;;;;;5018749;28;20176;-78
2022/07/21 06:27:31;;;;;;;25.33;23.30;;;22.20;99.90;;;;;;5011417;28;20212;-78
2022/07/21 06:29:58;;;;;;;17.83;16.13;;;22.40;99.90;;;;;;5013013;28;20194;-78
2022/07/21 06:32:25;;;;;;;41.28;38.55;;;22.70;99.90;;;;;;5022329;28;20183;-78
2022/07/21 06:34:50;;;;;;;39.38;36.67;;;23.00;99.90;;;;;;5020730;28;20241;-77
2022/07/21 06:37:16;;;;;;;37.50;34.90;;;22.90;99.90;;;;;;5022303;28;20444;-77
2022/07/21 06:39:42;;;;;;;36.45;33.88;;;23.00;99.90;;;;;;5020444;28;20183;-77
2022/07/21 06:42:09;;;;;;;150.85;142.52;;;23.00;99.90;;;;;;5011549;28;20167;-77
2022/07/21 06:44:35;;;;;;;280.55;264.02;;;23.00;99.90;;;;;;5010267;28;20210;-77
2022/07/21 06:47:04;;;;;;;217.88;205.48;;;23.40;99.90;;;;;;5011146;28;20781;-76
2022/07/21 06:49:33;;;;;;;132.70;125.25;;;23.60;99.90;;;;;;5012540;28;20183;-77
2022/07/21 06:51:59;;;;;;;42.63;39.88;;;24.00;99.90;;;;;;5011578;28;20234;-77
2022/07/21 06:54:25;;;;;;;22.35;20.63;;;23.90;99.90;;;;;;5011650;28;20217;-77
2022/07/21 06:56:51;;;;;;;19.73;18.13;;;24.00;99.90;;;;;;5015078;28;20282;-77
2022/07/21 06:59:16;;;;;;;33.75;31.50;;;24.00;99.90;;;;;;5015978;28;20675;-77
2022/07/21 07:01:42;;;;;;;96.18;90.82;;;24.00;99.90;;;;;;5015692;28;20267;-77
2022/07/21 07:04:08;;;;;;;67.57;63.47;;;24.20;99.90;;;;;;5015638;28;20184;-77
2022/07/21 07:06:34;;;;;;;84.82;80.10;;;24.60;99.90;;;;;;5015283;28;20196;-77
2022/07/21 07:09:00;;;;;;;35.50;33.08;;;25.40;99.90;;;;;;5014716;28;20274;-77
2022/07/21 07:11:25;;;;;;;15.75;14.43;;;26.10;99.90;;;;;;5014536;28;20180;-76
2022/07/21 07:13:51;;;;;;;18.00;16.50;;;26.20;99.90;;;;;;5014954;28;20215;-77
2022/07/21 07:16:17;;;;;;;17.20;15.77;;;26.30;99.90;;;;;;5015026;28;20206;-77
2022/07/21 07:18:43;;;;;;;21.10;19.38;;;25.80;99.90;;;;;;5012945;28;20640;-77
2022/07/21 07:21:09;;;;;;;21.13;19.40;;;25.60;99.90;;;;;;5013715;28;20176;-77
2022/07/21 07:23:34;;;;;;;19.92;18.42;;;26.30;99.90;;;;;;5015738;28;20192;-77
2022/07/21 07:26:00;;;;;;;15.43;14.30;;;27.10;99.90;;;;;;5014607;28;20204;-77
2022/07/21 07:28:26;;;;;;;23.05;21.55;;;27.70;99.90;;;;;;5013973;28;20184;-77
2022/07/21 07:30:52;;;;;;;40.67;38.38;;;28.10;99.90;;;;;;5013358;28;20439;-77
2022/07/21 07:33:18;;;;;;;135.20;128.25;;;28.40;99.90;;;;;;5014613;28;20215;-77
2022/07/21 07:35:43;;;;;;;137.20;130.13;;;28.70;99.90;;;;;;5014674;28;20238;-77
2022/07/21 07:38:16;;;;;;;151.48;143.20;;;29.00;99.90;;;;;;5013643;28;20648;-77
2022/07/21 07:40:42;;;;;;;72.57;68.75;;;29.50;99.90;;;;;;5013493;28;20198;-77
2022/07/21 07:43:08;;;;;;;45.58;42.97;;;29.10;99.90;;;;;;5014531;28;20175;-77
2022/07/21 07:45:35;;;;;;;56.65;53.40;;;28.50;99.90;;;;;;5013213;28;20183;-77
2022/07/21 07:48:01;;;;;;;78.57;74.25;;;28.30;99.90;;;;;;5012420;28;20195;-77
2022/07/21 07:50:28;;;;;;;199.13;188.95;;;27.70;99.90;;;;;;5014983;28;20180;-77
2022/07/21 07:52:55;;;;;;;28.85;26.95;;;27.00;99.90;;;;;;5015452;28;20222;-77
2022/07/21 07:55:20;;;;;;;16.75;15.50;;;26.60;99.90;;;;;;5014094;28;20601;-77
2022/07/21 07:57:46;;;;;;;29.23;27.30;;;26.40;99.90;;;;;;5013118;28;20223;-77
2022/07/21 08:00:16;;;;;;;29.17;27.48;;;26.50;99.90;;;;;;5021731;28;20678;-77
2022/07/21 08:02:42;;;;;;;16.08;14.88;;;26.30;99.90;;;;;;5021471;28;20648;-77
2022/07/21 08:05:09;;;;;;;18.65;17.23;;;25.80;99.90;;;;;;5014906;28;20230;-77
2022/07/21 08:07:39;;;;;;;23.40;21.73;;;25.80;99.90;;;;;;5015357;28;20204;-77
2022/07/21 08:10:10;;;;;;;14.82;13.73;;;26.30;99.90;;;;;;5017039;28;20183;-76
2022/07/21 08:12:36;;;;;;;43.58;40.83;;;26.90;99.90;;;;;;5020052;28;20207;-77
2022/07/21 08:15:03;;;;;;;95.88;90.57;;;27.80;99.90;;;;;;5029456;28;20191;-77
2022/07/21 08:17:29;;;;;;;105.53;99.68;;;28.00;99.90;;;;;;5021289;28;20231;-77
2022/07/21 08:19:55;;;;;;;154.30;146.07;;;27.90;99.90;;;;;;5015009;28;20633;-77
2022/07/21 08:22:21;;;;;;;117.75;111.60;;;28.10;99.90;;;;;;5014199;28;20613;-77
2022/07/21 08:24:47;;;;;;;44.15;41.70;;;28.80;99.90;;;;;;5014368;28;20246;-78
2022/07/21 08:27:13;;;;;;;96.55;91.50;;;29.30;99.90;;;;;;5014862;28;20204;-77
2022/07/21 08:29:39;;;;;;;154.85;146.80;;;29.30;99.90;;;;;;5023121;28;20175;-77
2022/07/21 08:32:05;;;;;;;104.50;99.07;;;28.70;99.90;;;;;;5020091;28;20183;-77
2022/07/21 08:34:31;;;;;;;71.80;67.65;;;28.60;99.90;;;;;;5020296;28;20672;-77
2022/07/21 08:36:57;;;;;;;18.42;17.23;;;28.90;99.90;;;;;;5017831;28;20210;-77
2022/07/21 08:39:23;;;;;;;21.42;19.98;;;29.20;99.90;;;;;;5016123;28;20172;-78
2022/07/21 08:41:50;;;;;;;12.65;11.40;;;29.60;99.90;;;;;;5015635;28;20206;-78
2022/07/21 08:44:16;;;;;;;39.83;37.15;;;29.80;99.90;;;;;;5015855;28;20183;-77
2022/07/21 08:46:45;;;;;;;38.30;36.13;;;30.00;99.90;;;;;;5015072;28;20482;-77
2022/07/21 08:49:11;;;;;;;38.78;36.30;;;29.70;99.90;;;;;;5014273;28;20199;-78
2022/07/21 08:51:37;;;;;;;45.85;42.85;;;29.20;99.90;;;;;;5015680;28;20568;-77
2022/07/21 08:54:04;;;;;;;10.82;9.93;;;28.60;99.90;;;;;;5017807;28;20278;-77
2022/07/21 08:56:30;;;;;;;36.35;33.88;;;28.20;99.90;;;;;;5026226;28;20204;-77
2022/07/21 08:58:56;;;;;;;40.47;37.85;;;27.70;99.90;;;;;;5023990;28;20226;-77
2022/07/21 09:01:24;;;;;;;48.60;45.55;;;27.40;99.90;;;;;;5023567;28;20648;-77
2022/07/21 09:03:51;;;;;;;105.50;99.95;;;27.30;99.90;;;;;;5019644;28;20196;-77
2022/07/21 09:06:17;;;;;;;96.53;91.45;;;27.10;99.90;;;;;;5014258;28;20710;-77
2022/07/21 09:08:46;;;;;;;84.07;79.60;;;26.80;99.90;;;;;;5014724;28;20271;-77
2022/07/21 09:11:16;;;;;;;80.03;75.75;;;26.50;99.90;;;;;;5015352;28;20194;-77
2022/07/21 09:13:44;;;;;;;61.13;57.38;;;26.10;99.90;;;;;;5026323;28;20213;-77
2022/07/21 09:16:11;;;;;;;22.95;21.00;;;25.90;99.90;;;;;;5021986;28;20200;-77
2022/07/21 09:18:52;;;;;;;13.05;11.93;;;25.80;99.90;;;;;;5024257;28;20183;-77
2022/07/21 09:21:19;;;;;;;68.45;64.72;;;26.80;99.90;;;;;;5013655;28;20565;-77
2022/07/21 09:23:45;;;;;;;111.88;106.10;;;27.90;99.90;;;;;;5014919;28;20183;-77
2022/07/21 09:26:11;;;;;;;76.80;72.70;;;29.00;99.90;;;;;;5013400;28;20203;-77
2022/07/21 09:28:36;;;;;;;16.15;14.93;;;30.20;99.90;;;;;;5012724;28;20188;-78
2022/07/21 09:31:11;;;;;;;30.60;28.30;;;31.00;99.90;;;;;;5015850;28;20682;-76
2022/07/21 09:33:45;;;;;;;19.85;18.55;;;31.20;99.90;;;;;;5015467;28;20606;-78
2022/07/21 09:36:13;;;;;;;19.80;18.38;;;31.30;99.30;;;;;;5013546;28;20211;-79
2022/07/21 09:38:51;;;;;;;9.80;9.00;;;31.50;99.90;;;;;;5012066;28;20267;-79
2022/07/21 09:41:20;;;;;;;11.70;10.65;;;31.70;98.40;;;;;;5011483;28;20179;-79
2022/07/21 09:43:48;;;;;;;13.73;12.73;;;31.90;97.00;;;;;;5011115;28;20215;-76
2022/07/21 09:46:20;;;;;;;20.83;19.50;;;32.10;96.10;;;;;;5037588;22;20262;-77
2022/07/21 09:48:49;;;;;;;15.32;14.23;;;32.60;97.50;;;;;;5050991;28;20354;-76
2022/07/21 09:51:24;;;;;;;11.32;10.23;;;32.70;96.30;;;;;;5033942;28;20174;-77
2022/07/21 09:54:01;;;;;;;9.88;9.07;;;33.10;95.00;;;;;;5051618;28;20328;-77
2022/07/21 09:56:30;;;;;;;7.95;7.35;;;33.20;95.50;;;;;;5051850;28;20295;-76
2022/07/21 09:58:57;;;;;;;9.80;8.80;;;33.00;94.00;;;;;;5049694;28;20666;-76
2022/07/21 10:01:25;;;;;;;9.43;7.70;;;32.00;96.10;;;;;;5051788;28;20197;-77
2022/07/21 10:03:52;;;;;;;11.75;10.75;;;31.40;96.50;;;;;;5051487;28;20189;-76
2022/07/21 10:06:27;;;;;;;13.57;12.38;;;31.30;96.60;;;;;;5051660;28;20285;-77
2022/07/21 10:08:55;;;;;;;22.30;20.60;;;30.80;97.30;;;;;;5050859;28;20578;-76
2022/07/21 10:11:22;;;;;;;30.13;28.23;;;30.80;97.40;;;;;;5049289;28;20514;-76
2022/07/21 10:13:48;;;;;;;27.27;25.42;;;31.30;97.40;;;;;;5051322;28;20298;-76
2022/07/21 10:16:15;;;;;;;46.10;43.60;;;31.20;97.10;;;;;;5050063;28;20194;-76
2022/07/21 10:19:03;;;;;;;23.70;22.23;;;31.20;98.30;;;;;;5049524;28;20221;-75
2022/07/21 10:21:34;;;;;;;17.20;16.10;;;31.20;97.00;;;;;;5050405;28;20174;-76
2022/07/21 10:24:00;;;;;;;8.63;8.00;;;32.00;94.40;;;;;;5051255;28;20186;-76
2022/07/21 10:26:26;;;;;;;7.57;6.97;;;32.70;93.10;;;;;;5051033;28;20225;-76
2022/07/21 10:28:52;;;;;;;9.30;8.43;;;32.60;93.00;;;;;;5050613;28;20260;-76
2022/07/21 10:31:27;;;;;;;9.85;8.77;;;32.50;93.40;;;;;;5050957;28;20546;-76
2022/07/21 10:33:56;;;;;;;9.10;8.40;;;32.50;93.10;;;;;;5050740;28;20220;-76
2022/07/21 10:36:28;;;;;;;10.00;9.23;;;33.00;91.60;;;;;;5051203;28;20618;-76
2022/07/21 10:39:06;;;;;;;20.13;18.70;;;33.20;87.90;;;;;;5049005;28;20187;-75
2022/07/21 10:41:43;;;;;;;19.67;18.55;;;33.50;85.80;;;;;;5050950;28;20646;-76
2022/07/21 10:44:27;;;;;;;11.27;10.38;;;34.20;85.50;;;;;;5050919;28;20273;-76
2022/07/21 10:47:10;;;;;;;8.40;7.68;;;34.20;79.40;;;;;;5050141;28;20213;-75
2022/07/21 10:49:50;;;;;;;8.35;7.13;;;34.20;81.10;;;;;;5049579;28;20181;-76
2022/07/21 10:52:34;;;;;;;7.82;7.13;;;33.80;82.20;;;;;;5050610;28;20208;-76
2022/07/21 10:55:10;;;;;;;6.82;6.32;;;34.30;80.20;;;;;;5050777;28;20178;-76
2022/07/21 10:57:44;;;;;;;7.63;6.32;;;33.50;75.30;;;;;;5048935;28;20197;-76
2022/07/21 11:00:21;;;;;;;7.22;6.63;;;32.80;79.10;;;;;;5051177;28;20175;-76
2022/07/21 11:03:11;;;;;;;6.95;6.45;;;32.20;79.20;;;;;;5051231;28;20209;-76
2022/07/21 11:05:37;;;;;;;7.90;7.35;;;31.30;78.10;;;;;;5039707;28;20539;-76
2022/07/21 11:08:21;;;;;;;7.95;7.28;;;31.60;80.10;;;;;;5052569;28;20202;-76
2022/07/21 11:10:52;;;;;;;9.13;8.57;;;32.70;77.00;;;;;;5049665;28;20201;-75
2022/07/21 11:13:21;;;;;;;6.75;6.05;;;33.90;77.50;;;;;;5050442;28;20263;-75
2022/07/21 11:16:00;;;;;;;7.22;6.63;;;34.00;72.90;;;;;;5050421;28;20179;-75
2022/07/21 11:18:29;;;;;;;7.22;6.63;;;33.20;74.60;;;;;;5048595;28;20228;-76
2022/07/21 11:21:15;;;;;;;7.70;7.20;;;33.20;78.70;;;;;;5050441;28;20181;-76
2022/07/21 11:23:49;;;;;;;10.48;9.70;;;32.10;78.60;;;;;;5051819;28;20183;-76
2022/07/21 11:26:18;;;;;;;12.55;11.75;;;31.50;81.00;;;;;;5052933;28;20206;-76
2022/07/21 11:28:45;;;;;;;11.82;11.02;;;31.30;79.50;;;;;;5049612;28;20212;-76
2022/07/21 11:31:13;;;;;;;9.93;9.32;;;30.90;82.40;;;;;;5050670;28;20559;-76
2022/07/21 11:33:41;;;;;;;8.98;8.38;;;31.10;81.50;;;;;;5050383;28;20591;-75
2022/07/21 11:36:07;;;;;;;7.82;7.05;;;31.10;81.30;;;;;;5050375;28;20178;-75
2022/07/21 11:38:34;;;;;;;9.50;8.82;;;30.70;79.20;;;;;;5048362;28;20202;-75
2022/07/21 11:41:26;;;;;;;8.60;7.95;;;30.60;80.90;;;;;;5051751;28;20185;-75
2022/07/21 11:43:51;;;;;;;9.13;8.43;;;30.20;84.30;;;;;;5051871;28;20190;-77
2022/07/21 11:46:17;;;;;;;6.90;6.28;;;29.90;87.80;;;;;;5053761;28;20236;-77
2022/07/21 11:48:43;;;;;;;10.27;9.45;;;29.60;89.00;;;;;;5053002;28;20186;-75
2022/07/21 11:51:09;;;;;;;24.05;22.77;;;29.30;89.50;;;;;;5052621;28;20261;-76
2022/07/21 11:53:42;;;;;;;9.90;9.30;;;29.40;88.90;;;;;;5053891;28;20698;-75
2022/07/21 11:56:15;;;;;;;10.30;6.43;;;30.70;85.80;;;;;;5054071;28;20554;-76
2022/07/21 11:58:43;;;;;;;9.93;9.23;;;32.20;83.60;;;;;;5052615;28;20213;-76
2022/07/21 12:01:09;;;;;;;10.32;9.43;;;33.10;78.90;;;;;;5053247;28;20171;-76
2022/07/21 12:03:46;;;;;;;6.97;6.47;;;34.20;76.10;;;;;;5052490;28;20186;-75
2022/07/21 12:06:13;;;;;;;6.47;6.05;;;35.20;72.80;;;;;;5053649;28;20305;-76
2022/07/21 12:08:38;;;;;;;26.08;24.60;;;36.10;67.10;;;;;;5052721;28;20561;-76
2022/07/21 12:11:10;;;;;;;236.55;224.68;;;36.30;67.40;;;;;;5052342;28;20193;-76
2022/07/21 12:13:57;;;;;;;204.93;194.75;;;36.80;63.80;;;;;;5053623;28;20249;-76
2022/07/21 12:16:23;;;;;;;231.38;219.70;;;35.90;64.70;;;;;;5053540;28;20289;-76
2022/07/21 12:19:05;;;;;;;175.15;166.60;;;34.90;65.70;;;;;;5052424;28;20632;-76
2022/07/21 12:21:51;;;;;;;59.88;56.78;;;33.50;68.40;;;;;;5053582;28;20182;-78
2022/07/21 12:24:18;;;;;;;5.82;5.40;;;32.30;71.20;;;;;;5052548;28;20236;-77
2022/07/21 12:26:45;;;;;;;6.40;5.90;;;32.40;75.40;;;;;;5051591;28;20209;-76
2022/07/21 12:29:24;;;;;;;7.65;6.95;;;33.60;72.20;;;;;;5052998;28;20182;-76
2022/07/21 12:31:50;;;;;;;41.88;39.70;;;33.70;70.00;;;;;;5053180;28;20597;-76